createdAt,value
2018-11-28T20:28:42.558Z,1019.99
2018-11-28T20:29:43.927Z,1019.90
2018-11-28T20:30:45.293Z,1019.93
2018-11-28T20:31:46.668Z,1019.85
2018-11-28T20:32:48.039Z,1019.97
2018-11-28T20:33:49.403Z,1019.83
2018-11-28T20:34:50.774Z,1019.85
2018-11-28T20:35:52.135Z,1019.89
2018-11-28T20:36:53.512Z,1019.81
2018-11-28T20:37:54.879Z,1019.88
2018-11-28T20:38:56.244Z,1019.73
2018-11-28T20:39:57.613Z,1019.80
2018-11-28T20:40:58.978Z,1019.79
2018-11-28T20:42:00.349Z,1019.99
2018-11-28T20:43:01.721Z,1019.77
2018-11-28T20:44:03.083Z,1019.82
2018-11-28T20:45:04.464Z,1019.84
2018-11-28T20:46:05.831Z,1019.68
2018-11-28T20:47:07.193Z,1019.68
2018-11-28T20:48:08.565Z,1019.68
2018-11-28T20:49:10.018Z,1019.61
2018-11-28T20:50:11.380Z,1019.65
2018-11-28T20:51:12.755Z,1019.75
2018-11-28T20:52:14.143Z,1019.70
2018-11-28T20:53:15.510Z,1019.77
2018-11-28T20:54:16.872Z,1019.85
2018-11-28T20:55:18.246Z,1019.72
2018-11-28T20:56:19.606Z,1019.73
2018-11-28T20:57:20.978Z,1019.69
2018-11-28T20:58:22.354Z,1019.65
2018-11-28T20:59:23.724Z,1019.72
2018-11-28T21:00:25.089Z,1019.66
2018-11-28T21:01:26.464Z,1019.55
2018-11-28T21:02:27.838Z,1019.52
2018-11-28T21:03:29.216Z,1019.56
2018-11-28T21:04:30.584Z,1019.58
2018-11-28T21:05:31.959Z,1019.72
2018-11-28T21:06:33.323Z,1019.53
2018-11-28T21:07:34.717Z,1019.46
2018-11-28T21:08:36.062Z,1019.45
2018-11-28T21:09:37.431Z,1019.51
2018-11-28T21:10:38.802Z,1019.47
2018-11-28T21:11:40.173Z,1019.40
2018-11-28T21:12:41.540Z,1019.69
2018-11-28T21:13:42.920Z,1019.45
2018-11-28T21:14:44.299Z,1019.34
2018-11-28T21:15:45.659Z,1019.54
2018-11-28T21:16:47.039Z,1019.65
2018-11-28T21:17:48.409Z,1019.64
2018-11-28T21:18:49.776Z,1019.46
2018-11-28T21:19:51.150Z,1019.69
2018-11-28T21:20:52.565Z,1019.53
2018-11-28T21:21:53.893Z,1019.65
2018-11-28T21:22:55.257Z,1019.45
2018-11-28T21:23:56.625Z,1019.68
2018-11-28T21:24:57.998Z,1019.51
2018-11-28T21:25:59.374Z,1019.44
2018-11-28T21:27:00.739Z,1019.50
2018-11-28T21:28:02.126Z,1019.37
2018-11-28T21:29:03.488Z,1019.41
2018-11-28T21:30:04.863Z,1019.41
2018-11-28T21:31:06.239Z,1019.52
2018-11-28T21:32:07.611Z,1019.43
2018-11-28T21:33:08.983Z,1019.50
2018-11-28T21:34:10.358Z,1019.46
2018-11-28T21:35:11.734Z,1019.49
2018-11-28T21:36:13.111Z,1019.46
2018-11-28T21:37:14.480Z,1019.40
2018-11-28T21:38:15.861Z,1019.51
2018-11-28T21:39:17.230Z,1019.41
2018-11-28T21:40:18.593Z,1019.33
2018-11-28T21:41:19.967Z,1019.31
2018-11-28T21:42:21.341Z,1019.36
2018-11-28T21:43:22.731Z,1019.30
2018-11-28T21:44:24.105Z,1019.31
2018-11-28T21:45:25.476Z,1019.26
2018-11-28T21:46:26.855Z,1019.33
2018-11-28T21:47:28.233Z,1019.40
2018-11-28T21:48:29.593Z,1019.30
2018-11-28T21:49:30.976Z,1019.48
2018-11-28T21:50:32.364Z,1019.31
2018-11-28T21:51:33.729Z,1019.23
2018-11-28T21:52:35.074Z,1019.55
2018-11-28T21:53:36.447Z,1019.30
2018-11-28T21:54:37.812Z,1019.35
2018-11-28T21:55:39.190Z,1019.22
2018-11-28T21:56:40.563Z,1019.23
2018-11-28T21:57:41.967Z,1019.24
2018-11-28T21:58:43.334Z,1019.23
2018-11-28T21:59:44.708Z,1019.41
2018-11-28T22:00:46.079Z,1019.26
2018-11-28T22:01:47.447Z,1019.26
2018-11-28T22:02:48.833Z,1019.30
2018-11-28T22:03:50.202Z,1019.27
2018-11-28T22:04:51.573Z,1019.29
2018-11-28T22:05:52.960Z,1019.31
2018-11-28T22:06:54.336Z,1019.31
2018-11-28T22:07:55.710Z,1019.36
2018-11-28T22:08:57.076Z,1019.42
2018-11-28T22:09:58.452Z,1019.27
2018-11-28T22:10:59.824Z,1019.33
2018-11-28T22:12:01.204Z,1019.36
2018-11-28T22:13:02.578Z,1019.39
2018-11-28T22:14:03.942Z,1019.36
2018-11-28T22:15:05.352Z,1019.35
2018-11-28T22:16:06.684Z,1019.32
2018-11-28T22:17:08.083Z,1019.24
2018-11-28T22:18:09.451Z,1019.16
2018-11-28T22:19:10.830Z,1019.23
2018-11-28T22:20:12.191Z,1019.23
2018-11-28T22:21:13.571Z,1019.23
2018-11-28T22:22:14.941Z,1019.22
2018-11-28T22:23:16.311Z,1019.33
2018-11-28T22:24:17.691Z,1019.23
2018-11-28T22:25:19.075Z,1019.40
2018-11-28T22:26:20.448Z,1019.18
2018-11-28T22:27:21.827Z,1019.22
2018-11-28T22:28:23.193Z,1019.26
2018-11-28T22:29:24.564Z,1019.31
2018-11-28T22:30:25.936Z,1019.26
2018-11-28T22:31:27.305Z,1019.24
2018-11-28T22:32:28.692Z,1019.31
2018-11-28T22:33:30.054Z,1019.11
2018-11-28T22:34:31.426Z,1019.15
2018-11-28T22:35:32.798Z,1019.08
